Huvudsida
METAR-TAF:

METAR-TAF

Flygplatser :

Medina, Saudiarabien

latitud: 24-33N, longitud: 039-42E, höjd: 654 m

Aktuellt väderrapport

Denna rapport gjordes för 16 minuter sedan, klockan 13:00 UTC
Vind 3 kt från väst
Temperatur 31°C
Fuktighet 7%
Tryck 1010 hPa
Sikt 10 km eller mer
Inga moln under 1 500 m eller inga cumulonimbus

METAR: OEMA 201300Z 27003KT CAVOK 31/M09 Q1010 NOSIG

Tid: 16:16 (13:16 UTC)

Väderprognos

Denna rapport gjordes för 2 timmar och 16 minuter sedan, klockan 11:00 UTC
Prognos gäller från 20 kl. 12 UTC till 21 kl. 18 UTC
Vind 15 kt från väst/nordväst
Sikt 10 km eller mer
Inga moln under 1 500 m eller inga cumulonimbus
Blir
från 20 kl. 20 UTC till 20 kl. 22 UTC
Vind 3 kt varierande vindriktning

TAF: OEMA 201100Z 2012/2118 30015KT CAVOK BECMG 2020/2022 VRB03KT

Aktuella väderrapporter och prognoser från 4000 flygplatser (METAR- och TAF-rapporter).

De tillgängliga stationerna syns som gula och röda prickar på kartan.

För musen över prickarna för att se namnen på stationerna.

Klicka sedan för att få väderrapporter och prognoser.

För att ändra kartan: Klicka på de gröna knapparna med ett svart kors på för att zooma in; den gröna knappen med ett streck på för att zooma ut; eller på de gröna pilarna för angränsande kartor.


METAR-TAF: